sensor_id;sensor_type;location;lat;lon;timestamp;P1;durP1;ratioP1;P2;durP2;ratioP2
18505;SDS011;9382;53.242;10.438;2023-05-16T00:01:24;8.50;;;4.30;;
18505;SDS011;9382;53.242;10.438;2023-05-16T00:03:55;7.93;;;4.20;;
18505;SDS011;9382;53.242;10.438;2023-05-16T00:06:22;7.23;;;4.10;;
18505;SDS011;9382;53.242;10.438;2023-05-16T00:08:48;8.37;;;4.10;;
18505;SDS011;9382;53.242;10.438;2023-05-16T00:11:15;9.20;;;4.00;;
18505;SDS011;9382;53.242;10.438;2023-05-16T00:13:42;7.73;;;4.07;;
18505;SDS011;9382;53.242;10.438;2023-05-16T00:16:10;8.73;;;4.20;;
18505;SDS011;9382;53.242;10.438;2023-05-16T00:18:38;5.20;;;3.80;;
18505;SDS011;9382;53.242;10.438;2023-05-16T00:21:06;4.70;;;3.80;;
18505;SDS011;9382;53.242;10.438;2023-05-16T00:23:33;5.23;;;4.40;;
18505;SDS011;9382;53.242;10.438;2023-05-16T00:25:59;10.00;;;4.80;;
18505;SDS011;9382;53.242;10.438;2023-05-16T00:28:26;7.43;;;4.60;;
18505;SDS011;9382;53.242;10.438;2023-05-16T00:30:53;7.03;;;4.60;;
18505;SDS011;9382;53.242;10.438;2023-05-16T00:33:19;7.07;;;4.70;;
18505;SDS011;9382;53.242;10.438;2023-05-16T00:35:46;7.70;;;4.90;;
18505;SDS011;9382;53.242;10.438;2023-05-16T00:38:14;6.00;;;4.67;;
18505;SDS011;9382;53.242;10.438;2023-05-16T00:40:41;8.17;;;4.90;;
18505;SDS011;9382;53.242;10.438;2023-05-16T00:43:07;7.87;;;4.80;;
18505;SDS011;9382;53.242;10.438;2023-05-16T00:45:34;7.37;;;4.73;;
18505;SDS011;9382;53.242;10.438;2023-05-16T00:48:01;8.27;;;4.00;;
18505;SDS011;9382;53.242;10.438;2023-05-16T00:50:28;6.37;;;4.30;;
18505;SDS011;9382;53.242;10.438;2023-05-16T00:52:55;7.37;;;3.83;;
18505;SDS011;9382;53.242;10.438;2023-05-16T00:55:23;7.73;;;4.00;;
18505;SDS011;9382;53.242;10.438;2023-05-16T00:57:49;7.07;;;3.57;;
18505;SDS011;9382;53.242;10.438;2023-05-16T01:00:17;5.90;;;3.50;;
18505;SDS011;9382;53.242;10.438;2023-05-16T01:02:45;7.23;;;3.70;;
18505;SDS011;9382;53.242;10.438;2023-05-16T01:05:11;7.73;;;4.10;;
18505;SDS011;9382;53.242;10.438;2023-05-16T01:07:38;6.40;;;3.60;;
18505;SDS011;9382;53.242;10.438;2023-05-16T01:10:05;4.60;;;3.70;;
18505;SDS011;9382;53.242;10.438;2023-05-16T01:12:36;6.03;;;3.80;;
18505;SDS011;9382;53.242;10.438;2023-05-16T01:15:09;5.33;;;3.27;;
18505;SDS011;9382;53.242;10.438;2023-05-16T01:17:42;9.03;;;3.50;;
18505;SDS011;9382;53.242;10.438;2023-05-16T01:20:24;7.70;;;3.50;;
18505;SDS011;9382;53.242;10.438;2023-05-16T01:23:03;7.17;;;3.70;;
18505;SDS011;9382;53.242;10.438;2023-05-16T01:25:38;7.07;;;3.50;;
18505;SDS011;9382;53.242;10.438;2023-05-16T01:28:14;4.97;;;3.50;;
18505;SDS011;9382;53.242;10.438;2023-05-16T01:30:42;5.60;;;3.20;;
18505;SDS011;9382;53.242;10.438;2023-05-16T01:33:09;3.93;;;3.30;;
18505;SDS011;9382;53.242;10.438;2023-05-16T01:35:37;7.50;;;3.50;;
18505;SDS011;9382;53.242;10.438;2023-05-16T01:38:17;4.53;;;3.20;;
18505;SDS011;9382;53.242;10.438;2023-05-16T01:40:50;5.13;;;3.30;;
18505;SDS011;9382;53.242;10.438;2023-05-16T01:43:24;7.23;;;4.37;;
18505;SDS011;9382;53.242;10.438;2023-05-16T01:45:58;4.73;;;4.27;;
18505;SDS011;9382;53.242;10.438;2023-05-16T01:48:29;4.87;;;4.27;;
18505;SDS011;9382;53.242;10.438;2023-05-16T01:51:02;5.13;;;4.10;;
18505;SDS011;9382;53.242;10.438;2023-05-16T01:53:31;8.40;;;4.30;;
18505;SDS011;9382;53.242;10.438;2023-05-16T01:56:02;7.10;;;4.10;;
18505;SDS011;9382;53.242;10.438;2023-05-16T01:58:32;5.63;;;3.63;;
18505;SDS011;9382;53.242;10.438;2023-05-16T02:01:01;7.10;;;3.93;;
18505;SDS011;9382;53.242;10.438;2023-05-16T02:03:28;5.40;;;3.63;;
18505;SDS011;9382;53.242;10.438;2023-05-16T02:05:55;5.37;;;4.03;;
18505;SDS011;9382;53.242;10.438;2023-05-16T02:08:22;9.67;;;3.83;;
18505;SDS011;9382;53.242;10.438;2023-05-16T02:10:49;8.30;;;3.93;;
18505;SDS011;9382;53.242;10.438;2023-05-16T02:13:16;8.90;;;4.30;;
18505;SDS011;9382;53.242;10.438;2023-05-16T02:15:44;10.63;;;4.10;;
18505;SDS011;9382;53.242;10.438;2023-05-16T02:18:11;4.77;;;3.13;;
18505;SDS011;9382;53.242;10.438;2023-05-16T02:20:38;8.03;;;3.77;;
18505;SDS011;9382;53.242;10.438;2023-05-16T02:23:04;5.87;;;3.37;;
18505;SDS011;9382;53.242;10.438;2023-05-16T02:25:31;4.47;;;3.50;;
18505;SDS011;9382;53.242;10.438;2023-05-16T02:27:58;8.57;;;3.37;;
18505;SDS011;9382;53.242;10.438;2023-05-16T02:30:24;8.10;;;3.10;;
18505;SDS011;9382;53.242;10.438;2023-05-16T02:32:52;7.07;;;2.90;;
18505;SDS011;9382;53.242;10.438;2023-05-16T02:35:19;5.87;;;2.97;;
18505;SDS011;9382;53.242;10.438;2023-05-16T02:37:46;4.10;;;3.10;;
18505;SDS011;9382;53.242;10.438;2023-05-16T02:40:12;7.83;;;2.83;;
18505;SDS011;9382;53.242;10.438;2023-05-16T02:42:39;6.63;;;3.17;;
18505;SDS011;9382;53.242;10.438;2023-05-16T02:45:06;7.70;;;3.17;;
18505;SDS011;9382;53.242;10.438;2023-05-16T02:47:33;5.57;;;3.63;;
18505;SDS011;9382;53.242;10.438;2023-05-16T02:50:01;4.93;;;2.70;;
18505;SDS011;9382;53.242;10.438;2023-05-16T02:52:28;5.77;;;3.20;;
18505;SDS011;9382;53.242;10.438;2023-05-16T02:54:55;6.40;;;3.63;;
18505;SDS011;9382;53.242;10.438;2023-05-16T02:57:21;8.07;;;4.00;;
18505;SDS011;9382;53.242;10.438;2023-05-16T02:59:48;7.40;;;4.30;;
18505;SDS011;9382;53.242;10.438;2023-05-16T03:02:15;8.80;;;4.43;;
18505;SDS011;9382;53.242;10.438;2023-05-16T03:04:41;8.97;;;4.10;;
18505;SDS011;9382;53.242;10.438;2023-05-16T03:07:09;8.73;;;3.90;;
18505;SDS011;9382;53.242;10.438;2023-05-16T03:09:36;8.30;;;3.87;;
18505;SDS011;9382;53.242;10.438;2023-05-16T03:12:03;9.43;;;3.80;;
18505;SDS011;9382;53.242;10.438;2023-05-16T03:14:30;8.87;;;3.90;;
18505;SDS011;9382;53.242;10.438;2023-05-16T03:16:56;9.57;;;4.17;;
18505;SDS011;9382;53.242;10.438;2023-05-16T03:19:23;10.43;;;3.57;;
18505;SDS011;9382;53.242;10.438;2023-05-16T03:21:50;10.07;;;3.50;;
18505;SDS011;9382;53.242;10.438;2023-05-16T03:24:18;7.70;;;3.50;;
18505;SDS011;9382;53.242;10.438;2023-05-16T03:26:46;7.87;;;3.97;;
18505;SDS011;9382;53.242;10.438;2023-05-16T03:29:13;9.13;;;3.60;;
18505;SDS011;9382;53.242;10.438;2023-05-16T03:31:40;10.57;;;3.80;;
18505;SDS011;9382;53.242;10.438;2023-05-16T03:34:07;13.10;;;4.33;;
18505;SDS011;9382;53.242;10.438;2023-05-16T03:36:34;10.70;;;3.90;;
18505;SDS011;9382;53.242;10.438;2023-05-16T03:39:00;7.70;;;3.60;;
18505;SDS011;9382;53.242;10.438;2023-05-16T03:41:29;11.53;;;3.20;;
18505;SDS011;9382;53.242;10.438;2023-05-16T03:43:55;11.03;;;3.23;;
18505;SDS011;9382;53.242;10.438;2023-05-16T03:46:22;9.73;;;3.47;;
18505;SDS011;9382;53.242;10.438;2023-05-16T03:48:48;11.53;;;2.77;;
18505;SDS011;9382;53.242;10.438;2023-05-16T03:51:15;12.40;;;3.13;;
18505;SDS011;9382;53.242;10.438;2023-05-16T03:53:42;9.53;;;3.03;;
18505;SDS011;9382;53.242;10.438;2023-05-16T03:56:08;9.47;;;3.03;;
18505;SDS011;9382;53.242;10.438;2023-05-16T03:58:36;7.97;;;2.60;;
18505;SDS011;9382;53.242;10.438;2023-05-16T04:01:03;6.50;;;2.63;;
18505;SDS011;9382;53.242;10.438;2023-05-16T04:03:30;9.17;;;2.70;;
18505;SDS011;9382;53.242;10.438;2023-05-16T04:05:58;9.83;;;3.13;;
18505;SDS011;9382;53.242;10.438;2023-05-16T04:08:24;12.43;;;3.17;;
18505;SDS011;9382;53.242;10.438;2023-05-16T04:10:51;11.20;;;2.90;;
18505;SDS011;9382;53.242;10.438;2023-05-16T04:13:18;11.00;;;2.70;;
18505;SDS011;9382;53.242;10.438;2023-05-16T04:15:46;11.83;;;2.67;;
18505;SDS011;9382;53.242;10.438;2023-05-16T04:18:13;10.87;;;3.03;;
18505;SDS011;9382;53.242;10.438;2023-05-16T04:20:40;8.13;;;2.53;;
18505;SDS011;9382;53.242;10.438;2023-05-16T04:23:07;10.33;;;2.93;;
18505;SDS011;9382;53.242;10.438;2023-05-16T04:25:36;10.57;;;2.90;;
18505;SDS011;9382;53.242;10.438;2023-05-16T04:28:03;11.10;;;2.93;;
18505;SDS011;9382;53.242;10.438;2023-05-16T04:30:30;8.57;;;3.00;;
18505;SDS011;9382;53.242;10.438;2023-05-16T04:32:58;9.23;;;2.53;;
18505;SDS011;9382;53.242;10.438;2023-05-16T04:35:25;14.10;;;3.20;;
18505;SDS011;9382;53.242;10.438;2023-05-16T04:37:53;7.83;;;2.70;;
18505;SDS011;9382;53.242;10.438;2023-05-16T04:40:20;11.13;;;2.70;;
18505;SDS011;9382;53.242;10.438;2023-05-16T04:42:49;11.10;;;3.10;;
18505;SDS011;9382;53.242;10.438;2023-05-16T04:45:16;11.00;;;2.83;;
18505;SDS011;9382;53.242;10.438;2023-05-16T04:47:42;12.93;;;3.13;;
18505;SDS011;9382;53.242;10.438;2023-05-16T04:50:11;15.93;;;3.23;;
18505;SDS011;9382;53.242;10.438;2023-05-16T04:52:38;13.03;;;3.50;;
18505;SDS011;9382;53.242;10.438;2023-05-16T04:55:06;14.90;;;3.27;;
18505;SDS011;9382;53.242;10.438;2023-05-16T04:57:33;14.93;;;2.70;;
18505;SDS011;9382;53.242;10.438;2023-05-16T04:59:59;10.53;;;3.03;;
18505;SDS011;9382;53.242;10.438;2023-05-16T05:02:29;13.87;;;3.20;;
18505;SDS011;9382;53.242;10.438;2023-05-16T05:04:56;10.57;;;2.83;;
18505;SDS011;9382;53.242;10.438;2023-05-16T05:07:24;15.80;;;3.20;;
18505;SDS011;9382;53.242;10.438;2023-05-16T05:09:53;17.33;;;3.53;;
18505;SDS011;9382;53.242;10.438;2023-05-16T05:12:20;14.07;;;3.27;;
18505;SDS011;9382;53.242;10.438;2023-05-16T05:14:46;12.13;;;3.20;;
18505;SDS011;9382;53.242;10.438;2023-05-16T05:17:13;15.10;;;3.33;;
18505;SDS011;9382;53.242;10.438;2023-05-16T05:19:40;12.67;;;3.57;;
18505;SDS011;9382;53.242;10.438;2023-05-16T05:22:07;18.10;;;3.33;;
18505;SDS011;9382;53.242;10.438;2023-05-16T05:24:35;16.57;;;3.40;;
18505;SDS011;9382;53.242;10.438;2023-05-16T05:27:01;15.13;;;3.37;;
18505;SDS011;9382;53.242;10.438;2023-05-16T05:29:28;15.90;;;3.17;;
18505;SDS011;9382;53.242;10.438;2023-05-16T05:31:55;14.30;;;3.23;;
18505;SDS011;9382;53.242;10.438;2023-05-16T05:34:21;13.63;;;3.10;;
18505;SDS011;9382;53.242;10.438;2023-05-16T05:36:48;13.33;;;3.17;;
18505;SDS011;9382;53.242;10.438;2023-05-16T05:39:15;12.50;;;2.70;;
18505;SDS011;9382;53.242;10.438;2023-05-16T05:41:43;16.27;;;3.30;;
18505;SDS011;9382;53.242;10.438;2023-05-16T05:44:10;12.63;;;2.70;;
18505;SDS011;9382;53.242;10.438;2023-05-16T05:46:37;15.17;;;3.13;;
18505;SDS011;9382;53.242;10.438;2023-05-16T05:49:03;17.43;;;2.70;;
18505;SDS011;9382;53.242;10.438;2023-05-16T05:51:30;12.47;;;3.00;;
18505;SDS011;9382;53.242;10.438;2023-05-16T05:53:57;8.83;;;2.23;;
18505;SDS011;9382;53.242;10.438;2023-05-16T05:56:24;8.30;;;2.50;;
18505;SDS011;9382;53.242;10.438;2023-05-16T05:58:52;12.60;;;3.00;;
18505;SDS011;9382;53.242;10.438;2023-05-16T06:01:18;13.10;;;2.80;;
18505;SDS011;9382;53.242;10.438;2023-05-16T06:03:46;7.57;;;2.40;;
18505;SDS011;9382;53.242;10.438;2023-05-16T06:06:12;11.43;;;2.47;;
18505;SDS011;9382;53.242;10.438;2023-05-16T06:08:40;8.13;;;2.47;;
18505;SDS011;9382;53.242;10.438;2023-05-16T06:11:06;14.70;;;2.77;;
18505;SDS011;9382;53.242;10.438;2023-05-16T06:13:33;11.57;;;2.70;;
18505;SDS011;9382;53.242;10.438;2023-05-16T06:16:01;16.43;;;2.67;;
18505;SDS011;9382;53.242;10.438;2023-05-16T06:18:28;13.80;;;3.03;;
18505;SDS011;9382;53.242;10.438;2023-05-16T06:20:55;13.37;;;2.80;;
18505;SDS011;9382;53.242;10.438;2023-05-16T06:23:21;10.33;;;2.43;;
18505;SDS011;9382;53.242;10.438;2023-05-16T06:25:49;14.43;;;2.50;;
18505;SDS011;9382;53.242;10.438;2023-05-16T06:28:15;10.60;;;2.67;;
18505;SDS011;9382;53.242;10.438;2023-05-16T06:30:42;11.63;;;2.27;;
18505;SDS011;9382;53.242;10.438;2023-05-16T06:33:10;11.47;;;2.57;;
18505;SDS011;9382;53.242;10.438;2023-05-16T06:35:37;11.57;;;2.77;;
18505;SDS011;9382;53.242;10.438;2023-05-16T06:38:04;14.07;;;2.77;;
18505;SDS011;9382;53.242;10.438;2023-05-16T06:40:31;12.00;;;2.60;;
18505;SDS011;9382;53.242;10.438;2023-05-16T06:42:58;10.67;;;2.30;;
18505;SDS011;9382;53.242;10.438;2023-05-16T06:45:24;10.50;;;2.53;;
18505;SDS011;9382;53.242;10.438;2023-05-16T06:47:51;10.50;;;2.30;;
18505;SDS011;9382;53.242;10.438;2023-05-16T06:50:19;7.60;;;2.10;;
18505;SDS011;9382;53.242;10.438;2023-05-16T06:52:46;9.17;;;2.20;;
18505;SDS011;9382;53.242;10.438;2023-05-16T06:55:12;13.47;;;2.30;;
18505;SDS011;9382;53.242;10.438;2023-05-16T06:57:39;9.17;;;2.17;;
18505;SDS011;9382;53.242;10.438;2023-05-16T07:00:06;10.80;;;2.27;;
18505;SDS011;9382;53.242;10.438;2023-05-16T07:02:34;9.13;;;2.40;;
18505;SDS011;9382;53.242;10.438;2023-05-16T07:05:00;11.30;;;2.40;;
18505;SDS011;9382;53.242;10.438;2023-05-16T07:07:28;10.03;;;2.33;;
18505;SDS011;9382;53.242;10.438;2023-05-16T07:09:55;11.87;;;2.17;;
18505;SDS011;9382;53.242;10.438;2023-05-16T07:12:22;10.80;;;2.30;;
18505;SDS011;9382;53.242;10.438;2023-05-16T07:14:48;12.03;;;2.77;;
18505;SDS011;9382;53.242;10.438;2023-05-16T07:17:15;8.53;;;2.20;;
18505;SDS011;9382;53.242;10.438;2023-05-16T07:19:42;10.20;;;2.40;;
18505;SDS011;9382;53.242;10.438;2023-05-16T07:22:08;10.50;;;2.70;;
18505;SDS011;9382;53.242;10.438;2023-05-16T07:24:37;10.60;;;2.37;;
18505;SDS011;9382;53.242;10.438;2023-05-16T07:27:04;12.77;;;2.67;;
18505;SDS011;9382;53.242;10.438;2023-05-16T07:29:30;13.07;;;2.77;;
18505;SDS011;9382;53.242;10.438;2023-05-16T07:31:57;11.40;;;2.30;;
18505;SDS011;9382;53.242;10.438;2023-05-16T07:34:24;11.37;;;2.43;;
18505;SDS011;9382;53.242;10.438;2023-05-16T07:36:50;12.27;;;2.20;;
18505;SDS011;9382;53.242;10.438;2023-05-16T07:39:17;9.53;;;2.17;;
18505;SDS011;9382;53.242;10.438;2023-05-16T07:41:45;7.57;;;2.27;;
18505;SDS011;9382;53.242;10.438;2023-05-16T07:44:12;7.10;;;2.30;;
18505;SDS011;9382;53.242;10.438;2023-05-16T07:46:38;12.60;;;2.27;;
18505;SDS011;9382;53.242;10.438;2023-05-16T07:49:06;12.63;;;2.30;;
18505;SDS011;9382;53.242;10.438;2023-05-16T07:51:33;8.10;;;2.60;;
18505;SDS011;9382;53.242;10.438;2023-05-16T07:54:00;8.13;;;2.30;;
18505;SDS011;9382;53.242;10.438;2023-05-16T07:56:26;5.43;;;1.70;;
18505;SDS011;9382;53.242;10.438;2023-05-16T07:58:54;11.67;;;2.23;;
18505;SDS011;9382;53.242;10.438;2023-05-16T08:01:21;6.60;;;2.10;;
18505;SDS011;9382;53.242;10.438;2023-05-16T08:03:48;8.03;;;1.73;;
18505;SDS011;9382;53.242;10.438;2023-05-16T08:06:15;7.47;;;1.87;;
18505;SDS011;9382;53.242;10.438;2023-05-16T08:08:41;6.80;;;2.00;;
18505;SDS011;9382;53.242;10.438;2023-05-16T08:11:08;7.73;;;2.20;;
18505;SDS011;9382;53.242;10.438;2023-05-16T08:13:35;6.73;;;1.80;;
18505;SDS011;9382;53.242;10.438;2023-05-16T08:16:03;4.70;;;1.80;;
18505;SDS011;9382;53.242;10.438;2023-05-16T08:18:30;5.50;;;1.70;;
18505;SDS011;9382;53.242;10.438;2023-05-16T08:20:57;6.50;;;1.67;;
18505;SDS011;9382;53.242;10.438;2023-05-16T08:23:24;6.30;;;1.60;;
18505;SDS011;9382;53.242;10.438;2023-05-16T08:25:50;5.60;;;1.60;;
18505;SDS011;9382;53.242;10.438;2023-05-16T08:28:18;8.40;;;2.17;;
18505;SDS011;9382;53.242;10.438;2023-05-16T08:30:45;4.90;;;1.87;;
18505;SDS011;9382;53.242;10.438;2023-05-16T08:33:13;5.00;;;1.50;;
18505;SDS011;9382;53.242;10.438;2023-05-16T08:35:41;8.80;;;2.17;;
18505;SDS011;9382;53.242;10.438;2023-05-16T08:38:07;6.60;;;1.50;;
18505;SDS011;9382;53.242;10.438;2023-05-16T08:40:34;9.33;;;1.70;;
18505;SDS011;9382;53.242;10.438;2023-05-16T08:43:01;7.77;;;1.77;;
18505;SDS011;9382;53.242;10.438;2023-05-16T08:45:28;5.40;;;1.73;;
18505;SDS011;9382;53.242;10.438;2023-05-16T08:47:56;6.93;;;1.73;;
18505;SDS011;9382;53.242;10.438;2023-05-16T08:50:26;8.30;;;1.70;;
18505;SDS011;9382;53.242;10.438;2023-05-16T08:52:56;5.83;;;1.67;;
18505;SDS011;9382;53.242;10.438;2023-05-16T08:55:23;6.10;;;1.80;;
18505;SDS011;9382;53.242;10.438;2023-05-16T08:57:52;7.30;;;1.90;;
18505;SDS011;9382;53.242;10.438;2023-05-16T09:00:20;6.80;;;1.70;;
18505;SDS011;9382;53.242;10.438;2023-05-16T09:02:47;5.27;;;1.73;;
18505;SDS011;9382;53.242;10.438;2023-05-16T09:05:15;6.53;;;1.60;;
18505;SDS011;9382;53.242;10.438;2023-05-16T09:07:44;5.07;;;1.70;;
18505;SDS011;9382;53.242;10.438;2023-05-16T09:10:11;5.77;;;1.93;;
18505;SDS011;9382;53.242;10.438;2023-05-16T09:12:38;4.93;;;1.60;;
18505;SDS011;9382;53.242;10.438;2023-05-16T09:15:06;3.60;;;1.57;;
18505;SDS011;9382;53.242;10.438;2023-05-16T09:17:34;6.27;;;1.80;;
18505;SDS011;9382;53.242;10.438;2023-05-16T09:20:08;5.07;;;1.47;;
18505;SDS011;9382;53.242;10.438;2023-05-16T09:22:36;4.63;;;1.60;;
18505;SDS011;9382;53.242;10.438;2023-05-16T09:25:05;5.00;;;1.50;;
18505;SDS011;9382;53.242;10.438;2023-05-16T09:27:32;7.00;;;1.63;;
18505;SDS011;9382;53.242;10.438;2023-05-16T09:29:59;4.57;;;1.50;;
18505;SDS011;9382;53.242;10.438;2023-05-16T09:32:26;9.77;;;1.80;;
18505;SDS011;9382;53.242;10.438;2023-05-16T09:34:53;5.37;;;1.23;;
18505;SDS011;9382;53.242;10.438;2023-05-16T09:37:22;8.03;;;1.80;;
18505;SDS011;9382;53.242;10.438;2023-05-16T09:39:50;4.40;;;1.47;;
18505;SDS011;9382;53.242;10.438;2023-05-16T09:42:19;5.53;;;1.60;;
18505;SDS011;9382;53.242;10.438;2023-05-16T09:44:47;5.47;;;1.77;;
18505;SDS011;9382;53.242;10.438;2023-05-16T09:47:15;3.40;;;1.23;;
18505;SDS011;9382;53.242;10.438;2023-05-16T09:49:43;3.70;;;1.20;;
18505;SDS011;9382;53.242;10.438;2023-05-16T09:52:10;8.20;;;2.03;;
18505;SDS011;9382;53.242;10.438;2023-05-16T09:54:38;3.03;;;1.50;;
18505;SDS011;9382;53.242;10.438;2023-05-16T09:57:05;5.63;;;1.50;;
18505;SDS011;9382;53.242;10.438;2023-05-16T09:59:35;5.07;;;1.67;;
18505;SDS011;9382;53.242;10.438;2023-05-16T10:02:02;3.87;;;1.27;;
18505;SDS011;9382;53.242;10.438;2023-05-16T10:04:31;6.27;;;1.77;;
18505;SDS011;9382;53.242;10.438;2023-05-16T10:06:58;4.97;;;1.60;;
18505;SDS011;9382;53.242;10.438;2023-05-16T10:09:27;3.83;;;1.40;;
18505;SDS011;9382;53.242;10.438;2023-05-16T10:11:56;7.03;;;1.87;;
18505;SDS011;9382;53.242;10.438;2023-05-16T10:14:27;4.23;;;1.43;;
18505;SDS011;9382;53.242;10.438;2023-05-16T10:16:57;3.97;;;1.43;;
18505;SDS011;9382;53.242;10.438;2023-05-16T10:19:24;7.13;;;1.60;;
18505;SDS011;9382;53.242;10.438;2023-05-16T10:21:53;5.37;;;1.80;;
18505;SDS011;9382;53.242;10.438;2023-05-16T10:24:25;6.03;;;1.43;;
18505;SDS011;9382;53.242;10.438;2023-05-16T10:27:00;4.90;;;1.50;;
18505;SDS011;9382;53.242;10.438;2023-05-16T10:29:28;6.03;;;1.70;;
18505;SDS011;9382;53.242;10.438;2023-05-16T10:31:57;3.77;;;1.50;;
18505;SDS011;9382;53.242;10.438;2023-05-16T10:34:25;8.70;;;1.63;;
18505;SDS011;9382;53.242;10.438;2023-05-16T10:36:52;4.13;;;1.47;;
18505;SDS011;9382;53.242;10.438;2023-05-16T10:39:18;5.20;;;1.60;;
18505;SDS011;9382;53.242;10.438;2023-05-16T10:41:46;7.17;;;1.60;;
18505;SDS011;9382;53.242;10.438;2023-05-16T10:44:13;4.87;;;1.30;;
18505;SDS011;9382;53.242;10.438;2023-05-16T10:46:41;6.53;;;1.67;;
18505;SDS011;9382;53.242;10.438;2023-05-16T10:49:21;5.93;;;1.53;;
18505;SDS011;9382;53.242;10.438;2023-05-16T10:52:05;5.00;;;1.47;;
18505;SDS011;9382;53.242;10.438;2023-05-16T10:54:34;3.27;;;1.40;;
18505;SDS011;9382;53.242;10.438;2023-05-16T10:57:05;5.23;;;1.53;;
18505;SDS011;9382;53.242;10.438;2023-05-16T10:59:40;6.70;;;1.63;;
18505;SDS011;9382;53.242;10.438;2023-05-16T11:02:21;4.23;;;1.20;;
18505;SDS011;9382;53.242;10.438;2023-05-16T11:04:51;3.97;;;1.47;;
18505;SDS011;9382;53.242;10.438;2023-05-16T11:07:18;5.33;;;1.43;;
18505;SDS011;9382;53.242;10.438;2023-05-16T11:09:52;5.33;;;1.40;;
18505;SDS011;9382;53.242;10.438;2023-05-16T11:12:42;2.90;;;1.50;;
18505;SDS011;9382;53.242;10.438;2023-05-16T11:15:20;6.83;;;1.43;;
18505;SDS011;9382;53.242;10.438;2023-05-16T11:17:49;6.53;;;1.60;;
18505;SDS011;9382;53.242;10.438;2023-05-16T11:20:28;6.60;;;1.80;;
18505;SDS011;9382;53.242;10.438;2023-05-16T11:25:46;6.70;;;1.57;;
18505;SDS011;9382;53.242;10.438;2023-05-16T11:28:15;7.23;;;1.60;;
18505;SDS011;9382;53.242;10.438;2023-05-16T11:30:43;5.13;;;1.50;;
18505;SDS011;9382;53.242;10.438;2023-05-16T11:33:11;4.23;;;1.67;;
18505;SDS011;9382;53.242;10.438;2023-05-16T11:35:39;4.90;;;1.77;;
18505;SDS011;9382;53.242;10.438;2023-05-16T11:38:10;5.27;;;1.70;;
18505;SDS011;9382;53.242;10.438;2023-05-16T11:40:41;5.53;;;1.57;;
18505;SDS011;9382;53.242;10.438;2023-05-16T11:43:08;5.90;;;1.70;;
18505;SDS011;9382;53.242;10.438;2023-05-16T11:45:35;5.00;;;1.60;;
18505;SDS011;9382;53.242;10.438;2023-05-16T11:48:02;3.43;;;1.53;;
18505;SDS011;9382;53.242;10.438;2023-05-16T11:50:30;5.10;;;1.60;;
18505;SDS011;9382;53.242;10.438;2023-05-16T11:53:01;6.37;;;1.70;;
18505;SDS011;9382;53.242;10.438;2023-05-16T11:55:28;3.67;;;1.57;;
18505;SDS011;9382;53.242;10.438;2023-05-16T11:57:56;4.80;;;1.40;;
18505;SDS011;9382;53.242;10.438;2023-05-16T12:00:24;8.23;;;1.90;;
18505;SDS011;9382;53.242;10.438;2023-05-16T12:02:52;7.90;;;1.80;;
18505;SDS011;9382;53.242;10.438;2023-05-16T12:05:20;5.77;;;1.93;;
18505;SDS011;9382;53.242;10.438;2023-05-16T12:07:49;8.77;;;2.20;;
18505;SDS011;9382;53.242;10.438;2023-05-16T12:10:19;7.77;;;2.07;;
18505;SDS011;9382;53.242;10.438;2023-05-16T12:12:47;7.07;;;2.03;;
18505;SDS011;9382;53.242;10.438;2023-05-16T12:15:15;6.43;;;2.07;;
18505;SDS011;9382;53.242;10.438;2023-05-16T12:17:42;4.43;;;1.60;;
18505;SDS011;9382;53.242;10.438;2023-05-16T12:20:10;6.73;;;1.77;;
18505;SDS011;9382;53.242;10.438;2023-05-16T12:22:38;5.87;;;1.70;;
18505;SDS011;9382;53.242;10.438;2023-05-16T12:25:20;7.50;;;1.87;;
18505;SDS011;9382;53.242;10.438;2023-05-16T12:27:49;5.27;;;1.50;;
18505;SDS011;9382;53.242;10.438;2023-05-16T12:30:17;6.60;;;1.40;;
18505;SDS011;9382;53.242;10.438;2023-05-16T12:32:44;3.87;;;1.37;;
18505;SDS011;9382;53.242;10.438;2023-05-16T12:35:11;6.67;;;1.67;;
18505;SDS011;9382;53.242;10.438;2023-05-16T12:37:38;3.30;;;1.37;;
18505;SDS011;9382;53.242;10.438;2023-05-16T12:40:05;3.93;;;1.50;;
18505;SDS011;9382;53.242;10.438;2023-05-16T12:42:36;4.17;;;1.60;;
18505;SDS011;9382;53.242;10.438;2023-05-16T12:45:02;6.97;;;1.40;;
18505;SDS011;9382;53.242;10.438;2023-05-16T12:47:33;5.10;;;1.70;;
18505;SDS011;9382;53.242;10.438;2023-05-16T12:50:01;6.47;;;1.70;;
18505;SDS011;9382;53.242;10.438;2023-05-16T12:52:33;4.10;;;1.60;;
18505;SDS011;9382;53.242;10.438;2023-05-16T12:55:00;6.23;;;1.53;;
18505;SDS011;9382;53.242;10.438;2023-05-16T12:57:27;4.17;;;1.43;;
18505;SDS011;9382;53.242;10.438;2023-05-16T12:59:55;7.20;;;1.70;;
18505;SDS011;9382;53.242;10.438;2023-05-16T13:02:22;9.23;;;1.87;;
18505;SDS011;9382;53.242;10.438;2023-05-16T13:04:48;4.03;;;1.50;;
18505;SDS011;9382;53.242;10.438;2023-05-16T13:07:15;4.50;;;1.50;;
18505;SDS011;9382;53.242;10.438;2023-05-16T13:09:42;7.70;;;1.80;;
18505;SDS011;9382;53.242;10.438;2023-05-16T13:12:08;3.83;;;1.20;;
18505;SDS011;9382;53.242;10.438;2023-05-16T13:14:35;4.27;;;1.33;;
18505;SDS011;9382;53.242;10.438;2023-05-16T13:17:04;5.13;;;1.20;;
18505;SDS011;9382;53.242;10.438;2023-05-16T13:19:30;3.10;;;1.37;;
18505;SDS011;9382;53.242;10.438;2023-05-16T13:21:57;3.07;;;1.30;;
18505;SDS011;9382;53.242;10.438;2023-05-16T13:24:24;4.70;;;1.20;;
18505;SDS011;9382;53.242;10.438;2023-05-16T13:26:50;4.80;;;1.13;;
18505;SDS011;9382;53.242;10.438;2023-05-16T13:29:20;5.23;;;1.10;;
18505;SDS011;9382;53.242;10.438;2023-05-16T13:31:47;3.90;;;1.10;;
18505;SDS011;9382;53.242;10.438;2023-05-16T13:34:15;4.33;;;1.23;;
18505;SDS011;9382;53.242;10.438;2023-05-16T13:36:44;3.97;;;1.27;;
18505;SDS011;9382;53.242;10.438;2023-05-16T13:39:13;3.10;;;1.20;;
18505;SDS011;9382;53.242;10.438;2023-05-16T13:41:40;4.80;;;1.43;;
18505;SDS011;9382;53.242;10.438;2023-05-16T13:44:07;4.40;;;1.70;;
18505;SDS011;9382;53.242;10.438;2023-05-16T13:46:34;3.87;;;1.30;;
18505;SDS011;9382;53.242;10.438;2023-05-16T13:49:00;4.07;;;1.30;;
18505;SDS011;9382;53.242;10.438;2023-05-16T13:51:28;5.30;;;1.47;;
18505;SDS011;9382;53.242;10.438;2023-05-16T13:53:55;5.27;;;1.30;;
18505;SDS011;9382;53.242;10.438;2023-05-16T13:56:22;3.07;;;1.50;;
18505;SDS011;9382;53.242;10.438;2023-05-16T13:58:49;2.77;;;1.30;;
18505;SDS011;9382;53.242;10.438;2023-05-16T14:01:16;5.53;;;1.30;;
18505;SDS011;9382;53.242;10.438;2023-05-16T14:03:43;4.03;;;1.53;;
18505;SDS011;9382;53.242;10.438;2023-05-16T14:06:10;5.17;;;1.50;;
18505;SDS011;9382;53.242;10.438;2023-05-16T14:08:38;4.17;;;1.50;;
18505;SDS011;9382;53.242;10.438;2023-05-16T14:11:04;5.10;;;1.80;;
18505;SDS011;9382;53.242;10.438;2023-05-16T14:13:31;4.37;;;1.40;;
18505;SDS011;9382;53.242;10.438;2023-05-16T14:15:58;5.53;;;1.40;;
18505;SDS011;9382;53.242;10.438;2023-05-16T14:18:24;5.80;;;1.53;;
18505;SDS011;9382;53.242;10.438;2023-05-16T14:20:51;3.23;;;1.40;;
18505;SDS011;9382;53.242;10.438;2023-05-16T14:23:20;5.13;;;1.43;;
18505;SDS011;9382;53.242;10.438;2023-05-16T14:25:48;5.33;;;1.67;;
18505;SDS011;9382;53.242;10.438;2023-05-16T14:28:15;6.60;;;1.27;;
18505;SDS011;9382;53.242;10.438;2023-05-16T14:30:42;4.93;;;1.60;;
18505;SDS011;9382;53.242;10.438;2023-05-16T14:33:08;4.77;;;1.30;;
18505;SDS011;9382;53.242;10.438;2023-05-16T14:35:35;4.33;;;1.23;;
18505;SDS011;9382;53.242;10.438;2023-05-16T14:38:03;7.53;;;1.37;;
18505;SDS011;9382;53.242;10.438;2023-05-16T14:40:31;3.77;;;1.53;;
18505;SDS011;9382;53.242;10.438;2023-05-16T14:42:59;5.70;;;1.30;;
18505;SDS011;9382;53.242;10.438;2023-05-16T14:45:28;3.23;;;1.13;;
18505;SDS011;9382;53.242;10.438;2023-05-16T14:47:55;4.60;;;1.30;;
18505;SDS011;9382;53.242;10.438;2023-05-16T14:50:21;3.93;;;1.43;;
18505;SDS011;9382;53.242;10.438;2023-05-16T14:52:48;3.53;;;1.20;;